.
WxDataArchive / Data Records for 2013-01-11
2013-01-10 January 2013 2013-01-12

Data Records for Friday, 11 January 2013

Time	Temp	Chill	HIndex	Humid	Dewpt	 Wind 	HiWind	WindDir	Rain 	Barom 
-----	----	-----	------	-----	-----	------	------	-------	-----	----- 
00:00	35.9	32.6	35.9	89	33.0	4	9	90	0.00	30.095 
00:05	36.0	36.0	36.0	89	33.1	3	6	90	0.00	30.095 
00:10	36.0	36.0	36.0	88	32.8	3	7	90	0.00	30.095 
00:15	36.2	36.2	36.2	88	33.0	2	7	90	0.00	30.094 
00:20	36.2	36.2	36.2	88	33.0	2	6	90	0.00	30.094 
00:25	36.2	36.2	36.2	88	33.0	3	6	90	0.00	30.094 
00:30	36.3	36.3	36.3	88	33.1	2	4	90	0.00	30.085 
00:35	36.3	36.3	36.3	88	33.1	2	4	90	0.00	30.085 
00:40	36.3	36.3	36.3	88	33.1	3	6	90	0.00	30.085 
00:45	36.3	36.3	36.3	88	33.1	2	5	90	0.00	30.076 
00:50	36.5	36.5	36.5	88	33.3	2	5	90	0.00	30.076 
00:55	36.5	36.5	36.5	88	33.3	2	5	112	0.00	30.076 
01:00	36.5	36.5	36.5	88	33.3	3	6	90	0.00	30.065 
01:05	36.6	36.6	36.6	88	33.4	3	6	90	0.00	30.065 
01:10	36.6	36.6	36.6	88	33.4	2	5	90	0.00	30.065 
01:15	36.6	36.6	36.6	88	33.4	2	5	90	0.00	30.057 
01:20	36.8	36.8	36.8	88	33.6	3	7	90	0.00	30.057 
01:25	36.8	36.8	36.8	88	33.6	3	5	90	0.00	30.057 
01:30	36.8	36.8	36.8	88	33.6	3	6	90	0.00	30.042 
01:35	36.9	36.9	36.9	88	33.7	3	5	90	0.01	30.042 
01:40	36.9	36.9	36.9	89	34.0	1	3	90	0.00	30.042 
01:45	37.0	37.0	37.0	89	34.1	1	4	90	0.02	30.045 
01:50	37.0	37.0	37.0	90	34.3	2	3	90	0.02	30.045 
01:55	37.0	37.0	37.0	90	34.3	2	5	90	0.03	30.045 
02:00	37.0	37.0	37.0	91	34.6	2	5	90	0.01	30.030 
02:05	37.2	37.2	37.2	92	35.1	2	4	90	0.01	30.030 
02:10	37.2	37.2	37.2	92	35.1	2	5	90	0.00	30.030 
02:15	37.3	37.3	37.3	92	35.2	3	5	90	0.00	30.013 
02:20	37.3	37.3	37.3	92	35.2	2	5	90	0.00	30.013 
02:25	37.5	37.5	37.5	92	35.4	2	5	90	0.00	30.013 
02:30	37.5	37.5	37.5	92	35.4	2	4	90	0.00	30.009 
02:35	37.6	37.6	37.6	92	35.5	2	5	90	0.00	30.009 
02:40	37.5	37.5	37.5	92	35.4	2	4	90	0.00	30.009 
02:45	37.5	37.5	37.5	93	35.7	3	6	90	0.00	29.995 
02:50	37.3	37.3	37.3	93	35.5	3	4	90	0.00	29.995 
02:55	37.5	37.5	37.5	93	35.7	2	5	90	0.00	29.995 
03:00	37.3	37.3	37.3	93	35.5	2	5	90	0.00	29.986 
03:05	37.3	37.3	37.3	93	35.5	2	5	90	0.00	29.986 
03:10	37.3	37.3	37.3	93	35.5	2	4	90	0.00	29.986 
03:15	37.2	37.2	37.2	93	35.4	1	4	90	0.00	29.982 
03:20	37.2	37.2	37.2	93	35.4	2	4	90	0.00	29.982 
03:25	37.2	37.2	37.2	93	35.4	2	5	90	0.00	29.982 
03:30	37.2	37.2	37.2	93	35.4	2	5	90	0.00	29.978 
03:35	37.3	37.3	37.3	93	35.5	2	5	90	0.00	29.978 
03:40	37.5	37.5	37.5	94	35.9	1	4	90	0.00	29.978 
03:45	37.5	37.5	37.5	94	35.9	2	4	90	0.00	29.962 
03:50	37.6	37.6	37.6	94	36.0	2	4	90	0.00	29.962 
03:55	37.8	37.8	37.8	94	36.2	2	5	90	0.00	29.962 
04:00	37.8	37.8	37.8	93	36.0	2	5	90	0.00	29.948 
04:05	37.8	37.8	37.8	93	36.0	2	5	90	0.00	29.948 
04:10	37.8	37.8	37.8	93	36.0	2	4	90	0.00	29.948 
04:15	37.8	37.8	37.8	93	36.0	3	5	90	0.00	29.936 
04:20	37.6	37.6	37.6	93	35.8	2	5	90	0.00	29.936 
04:25	37.6	37.6	37.6	93	35.8	1	3	90	0.00	29.936 
04:30	37.8	37.8	37.8	93	36.0	2	4	90	0.00	29.928 
04:35	37.8	37.8	37.8	93	36.0	2	5	90	0.00	29.928 
04:40	37.8	37.8	37.8	93	36.0	1	3	90	0.00	29.928 
04:45	37.9	37.9	37.9	93	36.1	1	3	90	0.00	29.917 
04:50	37.9	37.9	37.9	93	36.1	1	3	90	0.00	29.917 
04:55	37.9	37.9	37.9	93	36.1	1	4	90	0.00	29.917 
05:00	38.0	38.0	38.0	93	36.2	1	2	90	0.00	29.915 
05:05	38.2	38.2	38.2	93	36.4	1	3	90	0.01	29.915 
05:10	38.2	38.2	38.2	93	36.4	1	2	90	0.02	29.915 
05:15	38.3	38.3	38.3	93	36.5	1	3	90	0.02	29.916 
05:20	38.3	38.3	38.3	93	36.5	0	1	90	0.04	29.916 
05:25	38.5	38.5	38.5	93	36.7	1	2	90	0.05	29.916 
05:30	38.6	38.6	38.6	94	37.0	0	1	90	0.02	29.919 
05:35	38.9	38.9	38.9	94	37.3	1	3	90	0.02	29.919 
05:40	39.1	39.1	39.1	94	37.5	0	3	90	0.02	29.919 
05:45	39.3	39.3	39.3	94	37.7	1	3	90	0.03	29.910 
05:50	39.5	39.5	39.5	94	37.9	1	2	90	0.02	29.910 
05:55	39.8	39.8	39.8	94	38.2	1	3	90	0.01	29.910 
06:00	40.1	40.1	40.1	94	38.5	0	1	90	0.01	29.911 
06:05	40.2	40.2	40.2	95	38.9	1	2	90	0.02	29.911 
06:10	40.6	40.6	40.6	95	39.3	1	3	90	0.00	29.911 
06:15	41.6	41.6	41.6	95	40.3	2	5	90	0.00	29.901 
06:20	42.5	42.5	42.5	96	41.4	1	3	112	0.01	29.901 
06:25	43.2	43.2	43.2	96	42.1	1	4	112	0.00	29.901 
06:30	44.1	44.1	44.1	96	43.0	1	4	90	0.01	29.881 
06:35	44.6	44.6	44.6	96	43.5	2	5	90	0.00	29.881 
06:40	44.9	44.9	44.9	96	43.8	1	4	112	0.00	29.881 
06:45	45.1	45.1	45.1	96	44.0	1	4	112	0.00	29.861 
06:50	45.2	45.2	45.2	96	44.1	1	3	112	0.00	29.861 
06:55	45.4	45.4	45.4	96	44.3	1	3	112	0.00	29.861 
07:00	45.8	45.8	45.8	96	44.7	1	3	112	0.00	29.857 
07:05	46.2	46.2	46.2	96	45.1	1	3	90	0.00	29.857 
07:10	46.4	46.4	46.4	96	45.3	1	4	112	0.01	29.857 
07:15	46.7	46.7	46.7	96	45.6	2	6	68	0.00	29.863 
07:20	47.0	47.0	47.0	96	45.9	2	5	90	0.01	29.863 
07:25	47.3	47.3	47.3	96	46.2	3	7	112	0.01	29.863 
07:30	47.4	47.4	47.4	96	46.3	3	6	90	0.01	29.844 
07:35	47.6	47.6	47.6	96	46.5	3	6	112	0.00	29.844 
07:40	47.7	47.7	47.7	96	46.6	3	7	90	0.00	29.844 
07:45	47.9	47.9	47.9	96	46.8	2	5	90	0.00	29.810 
07:50	48.2	48.2	48.2	96	47.1	2	5	90	0.00	29.810 
07:55	48.5	48.5	48.5	96	47.4	3	7	90	0.00	29.810 
08:00	48.6	48.6	48.6	96	47.5	2	5	90	0.00	29.795 
08:05	48.6	48.6	48.6	96	47.5	3	7	90	0.00	29.795 
08:10	48.8	48.8	48.8	96	47.7	3	6	90	0.00	29.795 
08:15	48.9	48.9	48.9	96	47.8	3	7	90	0.00	29.784 
08:20	49.2	49.2	49.2	96	48.1	3	9	90	0.00	29.784 
08:25	49.5	49.5	49.5	96	48.4	3	7	90	0.00	29.784 
08:30	49.8	48.6	49.8	96	48.7	4	8	90	0.00	29.795 
08:35	50.1	50.1	50.1	96	49.0	3	7	90	0.00	29.795 
08:40	50.1	50.1	50.1	96	49.0	2	5	90	0.00	29.795 
08:45	50.2	50.2	50.2	96	49.1	1	8	90	0.00	29.811 
08:50	50.4	50.4	50.4	96	49.3	1	3	90	0.00	29.811 
08:55	50.4	50.4	50.4	96	49.3	0	4	248	0.00	29.811 
09:00	50.5	50.5	50.5	96	49.4	0	2	248	0.00	29.817 
09:05	50.7	50.7	50.7	96	49.6	1	5	248	0.00	29.817 
09:10	51.0	51.0	51.0	96	49.9	1	5	248	0.00	29.817 
09:15	51.1	51.1	51.1	96	50.0	1	4	248	0.00	29.828 
09:20	51.0	51.0	51.0	96	49.9	2	6	248	0.00	29.828 
09:25	51.0	51.0	51.0	96	49.9	1	4	248	0.00	29.828 
09:30	51.0	51.0	51.0	96	49.9	1	6	68	0.00	29.828 
09:35	51.0	51.0	51.0	96	49.9	1	9	248	0.00	29.828 
09:40	51.0	51.0	51.0	96	49.9	1	4	248	0.00	29.828 
09:45	51.0	51.0	51.0	96	49.9	0	2	22	0.00	29.823 
09:50	51.0	51.0	51.0	96	49.9	0	2	0	0.00	29.823 
09:55	51.0	51.0	51.0	96	49.9	0	3	0	0.00	29.823 
10:00	51.0	51.0	51.0	96	49.9	0	3	225	0.00	29.827 
10:05	51.0	51.0	51.0	96	49.9	0	3	225	0.00	29.827 
10:10	51.1	51.1	51.1	96	50.0	1	5	225	0.00	29.827 
10:15	51.1	51.1	51.1	96	50.0	1	3	68	0.00	29.826 
10:20	51.3	51.3	51.3	96	50.2	1	4	270	0.00	29.826 
10:25	51.6	51.6	51.6	96	50.5	1	2	0	0.00	29.826 
10:30	51.7	51.7	51.7	96	50.6	1	4	270	0.00	29.829 
10:35	51.7	51.7	51.7	96	50.6	1	5	225	0.00	29.829 
10:40	52.0	52.0	52.0	96	50.9	2	7	248	0.00	29.829 
10:45	52.3	52.3	52.3	96	51.2	2	5	248	0.00	29.838 
10:50	52.5	52.5	52.5	96	51.4	1	4	248	0.01	29.838 
10:55	52.6	52.6	52.6	96	51.5	1	4	248	0.00	29.838 
11:00	52.8	52.8	52.8	96	51.7	1	3	248	0.01	29.837 
11:05	52.9	52.9	52.9	96	51.8	1	4	248	0.00	29.837 
11:10	53.1	53.1	53.1	96	52.0	1	4	248	0.00	29.837 
11:15	53.2	53.2	53.2	96	52.1	1	5	248	0.00	29.831 
11:20	53.3	53.3	53.3	96	52.2	2	4	248	0.00	29.831 
11:25	53.3	53.3	53.3	96	52.2	1	4	248	0.00	29.831 
11:30	53.5	53.5	53.5	96	52.4	2	4	248	0.00	29.831 
11:35	53.6	53.6	53.6	96	52.5	1	4	248	0.00	29.831 
11:40	53.6	53.6	53.6	96	52.5	1	4	248	0.00	29.831 
11:45	53.8	53.8	53.8	96	52.7	1	4	248	0.00	29.823 
11:50	53.8	53.8	53.8	95	52.4	1	5	248	0.00	29.823 
11:55	53.9	53.9	53.9	95	52.5	1	3	248	0.00	29.823 
12:00	54.1	54.1	54.1	95	52.7	1	5	248	0.00	29.823 
12:05	54.4	54.4	54.4	95	53.0	2	7	248	0.00	29.823 
12:10	54.7	54.7	54.7	95	53.3	1	5	248	0.00	29.823 
12:15	54.8	54.8	54.8	95	53.4	2	5	248	0.00	29.821 
12:20	54.8	54.8	54.8	94	53.1	2	6	248	0.00	29.821 
12:25	54.8	54.8	54.8	94	53.1	1	2	225	0.00	29.821 
12:30	55.0	55.0	55.0	93	53.0	2	5	225	0.00	29.818 
12:35	55.0	55.0	55.0	93	53.0	2	8	248	0.00	29.818 
12:40	55.1	55.1	55.1	92	52.8	2	5	248	0.00	29.818 
12:45	55.4	55.4	55.4	92	53.1	1	4	248	0.00	29.813 
12:50	55.9	55.9	55.9	91	53.3	2	7	248	0.00	29.813 
12:55	56.0	56.0	56.0	90	53.1	2	4	248	0.00	29.813 
13:00	56.3	56.3	56.3	88	52.8	2	5	248	0.00	29.806 
13:05	56.3	56.3	56.3	86	52.2	3	8	248	0.00	29.806 
13:10	56.5	56.5	56.5	84	51.7	2	9	248	0.00	29.806 
13:15	56.7	56.7	56.7	82	51.3	2	7	248	0.00	29.803 
13:20	56.9	56.9	56.9	80	50.8	3	9	248	0.00	29.803 
13:25	57.0	57.0	57.0	79	50.5	3	6	248	0.00	29.803 
13:30	57.0	57.0	57.0	77	49.9	3	12	248	0.00	29.805 
13:35	56.9	56.9	56.9	74	48.7	4	10	248	0.00	29.805 
13:40	56.6	56.6	56.6	74	48.4	4	12	248	0.00	29.805 
13:45	56.3	56.3	56.3	75	48.5	4	10	248	0.00	29.814 
13:50	56.6	56.6	56.6	75	48.8	3	9	248	0.00	29.814 
13:55	56.9	56.9	56.9	75	49.1	2	10	248	0.00	29.814 
14:00	56.9	56.9	56.9	75	49.1	2	6	248	0.00	29.819 
14:05	56.7	56.7	56.7	74	48.5	2	5	248	0.00	29.819 
14:10	56.5	56.5	56.5	76	49.0	2	5	248	0.00	29.819 
14:15	56.5	56.5	56.5	77	49.4	1	4	248	0.00	29.820 
14:20	56.5	56.5	56.5	77	49.4	1	4	248	0.00	29.820 
14:25	56.5	56.5	56.5	77	49.4	1	4	248	0.00	29.820 
14:30	56.5	56.5	56.5	77	49.4	0	3	248	0.00	29.823 
14:35	56.6	56.6	56.6	77	49.5	1	5	248	0.00	29.823 
14:40	56.7	56.7	56.7	76	49.2	1	4	248	0.00	29.823 
14:45	56.6	56.6	56.6	76	49.1	1	4	248	0.00	29.829 
14:50	56.6	56.6	56.6	76	49.1	1	4	248	0.00	29.829 
14:55	57.0	57.0	57.0	74	48.8	2	5	248	0.00	29.829 
15:00	57.2	57.2	57.2	72	48.3	1	5	248	0.00	29.836 
15:05	57.0	57.0	57.0	70	47.3	4	11	248	0.00	29.836 
15:10	56.7	56.7	56.7	70	47.0	3	7	248	0.00	29.836 
15:15	56.7	56.7	56.7	71	47.4	3	6	248	0.00	29.839 
15:20	56.9	56.9	56.9	71	47.6	1	4	248	0.00	29.839 
15:25	56.9	56.9	56.9	71	47.6	3	7	248	0.00	29.839 
15:30	57.0	57.0	57.0	71	47.7	2	6	248	0.00	29.848 
15:35	56.7	56.7	56.7	71	47.4	2	10	248	0.00	29.848 
15:40	56.3	56.3	56.3	72	47.4	3	10	248	0.00	29.848 
15:45	56.2	56.2	56.2	73	47.7	1	5	248	0.00	29.853 
15:50	56.0	56.0	56.0	73	47.5	2	6	248	0.00	29.853 
15:55	55.9	55.9	55.9	73	47.4	2	7	248	0.00	29.853 
16:00	55.7	55.7	55.7	74	47.5	1	3	248	0.00	29.851 
16:05	55.7	55.7	55.7	74	47.5	1	5	248	0.00	29.851 
16:10	55.6	55.6	55.6	74	47.4	1	6	248	0.00	29.851 
16:15	55.6	55.6	55.6	75	47.8	1	4	248	0.00	29.855 
16:20	55.4	55.4	55.4	75	47.6	0	3	248	0.00	29.855 
16:25	55.4	55.4	55.4	75	47.6	1	3	248	0.00	29.855 
16:30	55.4	55.4	55.4	74	47.3	1	5	248	0.00	29.857 
16:35	55.1	55.1	55.1	72	46.2	1	4	248	0.00	29.857 
16:40	55.0	55.0	55.0	71	45.8	1	3	248	0.00	29.857 
16:45	54.7	54.7	54.7	71	45.5	1	4	248	0.00	29.853 
16:50	54.5	54.5	54.5	72	45.7	1	4	248	0.00	29.853 
16:55	54.4	54.4	54.4	73	45.9	1	4	248	0.00	29.853 
17:00	54.2	54.2	54.2	74	46.1	1	5	248	0.00	29.865 
17:05	54.1	54.1	54.1	75	46.4	1	5	248	0.00	29.865 
17:10	53.9	53.9	53.9	75	46.2	0	3	248	0.00	29.865 
17:15	53.6	53.6	53.6	76	46.2	0	2	248	0.00	29.855 
17:20	53.5	53.5	53.5	76	46.1	0	3	248	0.00	29.855 
17:25	53.2	53.2	53.2	77	46.2	0	2	248	0.00	29.855 
17:30	53.1	53.1	53.1	77	46.1	0	3	248	0.00	29.869 
17:35	52.8	52.8	52.8	77	45.8	0	1	248	0.00	29.869 
17:40	52.5	52.5	52.5	78	45.8	0	2	248	0.00	29.869 
17:45	52.2	52.2	52.2	78	45.5	0	1	248	0.00	29.871 
17:50	52.0	52.0	52.0	78	45.4	0	1	248	0.00	29.871 
17:55	51.6	51.6	51.6	79	45.3	0	1	248	0.00	29.871 
18:00	51.3	51.3	51.3	79	45.0	0	1	248	0.00	29.869 
18:05	51.0	51.0	51.0	80	45.0	0	2	248	0.00	29.869 
18:10	50.8	50.8	50.8	81	45.2	0	0	---	0.00	29.869 
18:15	50.4	50.4	50.4	81	44.8	0	1	248	0.00	29.867 
18:20	50.1	50.1	50.1	81	44.5	0	0	---	0.00	29.867 
18:25	49.8	49.8	49.8	81	44.2	0	0	---	0.00	29.867 
18:30	49.4	49.4	49.4	83	44.5	0	1	248	0.00	29.869 
18:35	49.2	49.2	49.2	84	44.6	0	1	248	0.00	29.869 
18:40	49.1	49.1	49.1	84	44.5	0	0	---	0.00	29.869 
18:45	48.9	48.9	48.9	85	44.6	0	1	248	0.00	29.869 
18:50	48.9	48.9	48.9	85	44.6	0	1	248	0.00	29.869 
18:55	48.9	48.9	48.9	86	44.9	0	2	248	0.00	29.869 
19:00	48.9	48.9	48.9	86	44.9	0	1	248	0.00	29.875 
19:05	48.9	48.9	48.9	86	44.9	0	1	248	0.00	29.875 
19:10	48.8	48.8	48.8	86	44.8	0	0	---	0.00	29.875 
19:15	48.6	48.6	48.6	86	44.6	0	1	248	0.00	29.874 
19:20	48.6	48.6	48.6	87	44.9	0	1	248	0.00	29.874 
19:25	48.6	48.6	48.6	87	44.9	0	2	248	0.00	29.874 
19:30	48.5	48.5	48.5	88	45.1	0	1	248	0.00	29.873 
19:35	48.3	48.3	48.3	88	44.9	0	1	248	0.00	29.873 
19:40	48.2	48.2	48.2	88	44.8	0	1	248	0.00	29.873 
19:45	48.0	48.0	48.0	88	44.6	0	0	---	0.00	29.868 
19:50	47.9	47.9	47.9	88	44.5	0	2	248	0.00	29.868 
19:55	47.7	47.7	47.7	88	44.3	0	1	248	0.00	29.868 
20:00	47.6	47.6	47.6	89	44.5	0	0	---	0.00	29.868 
20:05	47.6	47.6	47.6	89	44.5	0	1	248	0.00	29.868 
20:10	47.7	47.7	47.7	90	44.9	0	3	248	0.00	29.868 
20:15	48.2	48.2	48.2	90	45.4	0	2	248	0.00	29.866 
20:20	48.6	48.6	48.6	90	45.8	1	3	248	0.00	29.866 
20:25	49.1	49.1	49.1	89	46.0	0	2	248	0.00	29.866 
20:30	49.4	49.4	49.4	89	46.3	1	3	248	0.00	29.863 
20:35	49.5	49.5	49.5	88	46.1	0	1	248	0.00	29.863 
20:40	49.6	49.6	49.6	88	46.2	0	2	248	0.00	29.863 
20:45	49.6	49.6	49.6	88	46.2	0	1	248	0.00	29.858 
20:50	49.6	49.6	49.6	88	46.2	0	2	248	0.00	29.858 
20:55	49.6	49.6	49.6	88	46.2	0	1	248	0.00	29.858 
21:00	49.6	49.6	49.6	88	46.2	0	3	248	0.00	29.860 
21:05	49.6	49.6	49.6	87	45.9	0	2	248	0.00	29.860 
21:10	49.6	49.6	49.6	87	45.9	0	2	248	0.00	29.860 
21:15	49.5	49.5	49.5	87	45.8	1	2	248	0.00	29.859 
21:20	49.6	49.6	49.6	87	45.9	1	3	248	0.00	29.859 
21:25	49.6	49.6	49.6	87	45.9	0	3	248	0.00	29.859 
21:30	49.6	49.6	49.6	87	45.9	0	2	248	0.00	29.860 
21:35	49.5	49.5	49.5	87	45.8	0	1	248	0.00	29.860 
21:40	49.4	49.4	49.4	87	45.7	0	2	248	0.00	29.860 
21:45	49.4	49.4	49.4	88	46.0	0	3	248	0.00	29.852 
21:50	49.4	49.4	49.4	88	46.0	1	3	248	0.00	29.852 
21:55	49.5	49.5	49.5	88	46.1	1	3	248	0.00	29.852 
22:00	49.6	49.6	49.6	88	46.2	1	3	135	0.00	29.848 
22:05	49.6	49.6	49.6	88	46.2	1	2	112	0.00	29.848 
22:10	49.6	49.6	49.6	88	46.2	1	3	112	0.00	29.848 
22:15	49.8	49.8	49.8	87	46.1	0	2	112	0.00	29.849 
22:20	49.6	49.6	49.6	87	45.9	0	2	112	0.00	29.849 
22:25	49.5	49.5	49.5	87	45.8	0	2	112	0.00	29.849 
22:30	49.5	49.5	49.5	87	45.8	0	1	135	0.00	29.851 
22:35	49.4	49.4	49.4	88	46.0	1	3	135	0.00	29.851 
22:40	49.4	49.4	49.4	88	46.0	0	1	90	0.00	29.851 
22:45	49.4	49.4	49.4	88	46.0	0	2	90	0.00	29.857 
22:50	49.2	49.2	49.2	88	45.8	0	2	90	0.00	29.857 
22:55	49.2	49.2	49.2	88	45.8	0	1	90	0.00	29.857 
23:00	49.1	49.1	49.1	88	45.7	0	2	90	0.00	29.850 
23:05	49.1	49.1	49.1	88	45.7	0	2	225	0.00	29.850 
23:10	48.9	48.9	48.9	88	45.5	0	2	225	0.00	29.850 
23:15	48.9	48.9	48.9	88	45.5	0	1	225	0.00	29.846 
23:20	48.8	48.8	48.8	88	45.4	0	1	225	0.00	29.846 
23:25	48.6	48.6	48.6	88	45.2	0	2	225	0.00	29.846 
23:30	48.6	48.6	48.6	89	45.5	0	1	225	0.00	29.838 
23:35	48.8	48.8	48.8	89	45.7	0	2	225	0.00	29.838 
23:40	48.9	48.9	48.9	89	45.8	0	2	225	0.00	29.838 
23:45	49.1	49.1	49.1	89	46.0	0	2	225	0.00	29.848 
23:50	49.2	49.2	49.2	89	46.1	0	2	225	0.00	29.848 
23:55	49.4	49.4	49.4	89	46.3	1	2	225	0.00	29.848 

CoCoRaHS
IN-AL-39
A2 Web Hosting
Creative Commons License
GoDaddy
search engine by freefind advanced

loaded 2018-11-15 04:10:13 • last modified 2010-11-18 10:43:29
Privacy PolicyDisclaimer
• wx.awcolley.com is powered by PmWiki v.2002016 •
• all content (unless otherwise noted) © 2018 A W Colley